Tiempo atmosférico en la estación meteorológica de Villanueva De Córdoba, Córdoba (740 m.)



Fecha
DESCASC
Temp. máxima en grados centígrados (hora)
DESCASC
Temp. mínima en grados centígrados (hora)
DESCASC
Temp. media en grados centígrados
DESCASC
Racha de viento máxima en m/sg (hora)
DESCASC
Velocidad máxima media en intervalos de 10 minutos(hora)
DESCASC
Precipitaciones diarias en mm
DESCASC
Precipitaciones de 00:00 a 06:00 en mm
DESCASC
Precipitaciones de 06:00 a 12:00 en mm
DESCASC
Precipitaciones de 12:00 a 18:00 en mm
DESCASC
Precipitaciones de 18:00 a 24:00 en mm
DESCASC
31-03-2020 12.8 (16:10) 6.9 (00:00) 9.9 12.5 (09:50) 6.67 (18:50) 13 5 5.6 0.6 1.8
30-03-2020 15 (14:30) 6.3 (08:10) 10.7 15 (20:10) 7.5 (20:10) 2.6 0 0 0.4 2.2
29-03-2020 16.6 (15:40) 6.3 (00:00) 11.5 5.56 (18:40) 2.78 (03:00) 0 0 0 0 0
28-03-2020 15.8 (18:10) 1.6 (00:00) 8.7 6.67 (08:30) 3.06 (08:30) 0 0 0 0 0
27-03-2020 12.6 (13:00) 2.2 (00:00) 7.4 9.44 (10:20) 5 (10:20) 0 0 0 0 0
26-03-2020 17.1 (15:50) 7.9 (00:00) 12.5 12.5 (16:20) 6.67 (16:30) 1.2 1 0.2 0 0
25-03-2020 16.4 (16:50) 5.6 (00:00) 11 8.61 (14:30) 4.17 (15:00) 0 0 0 0 0
24-03-2020 15.9 (15:20) 4.7 (00:00) 10.3 12.22 (10:10) 6.11 (10:40) 0 0 0 0 0
23-03-2020 15.3 (16:40) 4.7 (00:00) 10 10.28 (19:50) 4.72 (19:50) 3.8 1 0 0.2 2.6
22-03-2020 11.9 (13:50) 3.3 (05:30) 7.6 6.67 (00:10) 3.33 (00:10) 5.2 0 0 4.6 0.6
21-03-2020 12.9 (15:40) 4.9 (00:00) 8.9 12.78 (05:10) 6.39 (05:10) 10.6 6 1.2 0.6 2.8
20-03-2020 17.6 (14:40) 8.3 (00:00) 13 7.5 (15:10) 4.44 (15:30) 0 0 0 0 0
19-03-2020 17.3 (14:10) 6.2 (00:00) 11.7 6.67 (01:20) 3.06 (09:30) 0 0 0 0 0
18-03-2020 20.4 (16:00) 9.3 (00:00) 14.8 12.5 (09:40) 6.39 (07:20) 0 0 0 0 0
17-03-2020 15.8 (15:50) 3.1 (00:00) 9.5 11.67 (15:50) 5.28 (23:59) 2.4 2.2 0 0.2 0
16-03-2020 11 (00:00) 0.8 (00:00) 5.9 12.78 (03:10) 6.39 (16:00) 7 3 0 1.2 2.8
15-03-2020 21.1 (15:10) 9.8 (00:00) 15.5 11.39 (18:20) 5.28 (18:30) 0 0 0 0 0
14-03-2020 21.5 (16:30) 9.7 (00:00) 15.6 6.11 (14:20) 2.78 (17:30) 0 0 0 0 0
13-03-2020 23.7 (15:40) 10.2 (07:30) 17 7.78 (17:10) 3.89 (17:40) 0 0 0 0 0
12-03-2020 25.8 (15:10) 13.2 (00:00) 19.5 9.72 (12:50) 5.28 (14:30) 0 0 0 0 0
11-03-2020 28 (14:20) 14 (00:00) 21 7.78 (14:40) 3.61 (14:40) 0 0 0 0 0
10-03-2020 23.4 (16:10) 6.7 (00:00) 15 6.11 (16:40) 2.78 (17:00) 0 0 0 0 0
09-03-2020 18 (16:40) 6 (00:00) 12 7.78 (00:50) 4.17 (09:50) 0 0 0 0 0
08-03-2020 18.8 (16:00) 5.9 (00:00) 12.3 9.72 (16:50) 4.44 (16:50) 0 0 0 0 0
07-03-2020 15.4 (15:40) 2.8 (00:00) 9.1 8.06 (16:20) 4.17 (16:10) 0 0 0 0 0
06-03-2020 12.4 (16:30) 4 (00:00) 8.2 15.83 (13:40) 7.22 (15:50) 0 0 0 0 0
05-03-2020 13.8 (17:00) 7 (00:00) 10.4 15.28 (15:50) 7.78 (14:40) 0.2 0 0 0.2 0
04-03-2020 15.1 (15:50) 8.7 (00:00) 11.9 9.44 (15:50) 5.28 (15:40) 0.2 0 0.2 0 0
03-03-2020 13.4 (17:00) 3.9 (00:00) 8.6 12.5 (12:50) 7.22 (12:50) 0 0 0 0 0

Gráficas

Temp. máximas Temp. mínimas Temp. medias Precipitaciones Rachas de viento máximas Velocidades máximas media en intervalos de 10 minutos

Datos horarios

Fecha y hora oficial Temperatura (ºC) Velocidad del viento (km/h) Dirección del viento Racha (km/h) Dirección de racha Precipitación (mm) Presión (hPa) Tendencia (hPa) Humedad (%)
2020-04-01 23:00:00 5.6 5 Sur 14 Sudoeste 0 926.8 1.1 87
2020-04-01 22:00:00 6.2 6 Sur 16 Sudoeste 0 926.3 1 85
2020-04-01 21:00:00 7.6 9 Sudoeste 50 Sudoeste 1 925.9 0.7 79
2020-04-01 20:00:00 10.7 12 Sudoeste 24 Sudoeste 0 925.7 0.3 56
2020-04-01 19:00:00 11.8 13 Sudoeste 27 Sudoeste 0 925.3 -0.4 51
2020-04-01 18:00:00 12.9 11 Sudoeste 24 Sudoeste 0 925.2 -0.6 46
2020-04-01 17:00:00 12.9 12 Sudoeste 33 Sudoeste 0 925.4 -0.7 46
2020-04-01 16:00:00 12.8 14 Sudoeste 29 Sudoeste 0 925.7 -0.9 53
2020-04-01 15:00:00 12.5 12 Sudoeste 30 Sudoeste 0 925.8 -1.1 58
2020-04-01 14:00:00 13.5 16 Sudoeste 31 Sudoeste 0.2 926.1 -0.3 54
2020-04-01 13:00:00 10.6 14 Sudoeste 28 Sudoeste 0 926.6 0.4 66
2020-04-01 12:00:00 9.4 16 Sudoeste 30 Sudoeste 0 926.9 1.1 72
2020-04-01 11:00:00 9.6 6 Sudoeste 16 Sudoeste 0 926.4 1.3 76
2020-04-01 10:00:00 7.5 7 Sudoeste 19 Sudoeste 0 926.2 1.6 93
2020-04-01 09:00:00 6.7 4 Sur 11 Sur 0 925.8 1.4 93
2020-04-01 08:00:00 5.9 6 Sur 10 Sur 0 925.1 0.8 92
2020-04-01 07:00:00 6.2 6 Sur 11 Sur 0 924.6 0.2 92
2020-04-01 06:00:00 6.8 6 Sur 12 Sur 0 924.4 0 91
2020-04-01 05:00:00 6.9 7 Sudoeste 15 Sur 0 924.3 0 91
2020-04-01 04:00:00 7.5 7 Sur 25 Sudoeste 0 924.4 0.2 90
2020-04-01 03:00:00 8.5 8 Sur 28 Sudoeste 0 924.4 0.5 91
2020-04-01 02:00:00 8.7 9 Sur 20 Sur 0 924.3 1 91
2020-04-01 01:00:00 8.7 9 Sudoeste 22 Sur 0 924.2 1.8 91
2020-04-01 00:00:00 9.2 11 Sur 28 Sur 0 923.9 2.3 90
2020-03-31 23:00:00 9.6 14 Sudoeste 31 Sudoeste 0 923.3 2.5 91
2020-03-31 22:00:00 9.9 8 Sur 20 Sur 0 922.4 2.2 90
2020-03-31 21:00:00 9.5 5 Sudoeste 23 Oeste 1.8 921.6 1.6 84
2020-03-31 20:00:00 11.3 12 Sudoeste 37 Sudoeste 0 920.8 1.2 79
2020-03-31 19:00:00 12.3 17 Sudoeste 44 Sudoeste 0 920.2 0.5 77
2020-03-31 18:00:00 12.1 18 Sudoeste 38 Sudoeste 0 920 0.1 80
2020-03-31 17:00:00 11.5 12 Sur 26 Sur 0.4 919.6 -0.3 87
2020-03-31 16:00:00 12.2 21 Sudoeste 42 Sudoeste 0 919.7 0 73
2020-03-31 15:00:00 10.8 9 Sur 35 Sur 0.2 919.9 0.3 87
2020-03-31 14:00:00 10.7 16 Sur 41 Sudoeste 0 919.9 1 83
2020-03-31 13:00:00 10.5 17 Sur 36 Sur 0 919.7 1.4 85
2020-03-31 12:00:00 9.1 16 Sur 37 Sur 0 919.6 1.7 90
2020-03-31 11:00:00 9 19 Sur 45 Sur 0 918.9 1.5 94
2020-03-31 10:00:00 7.9 18 Sur 45 Sur 0.2 918.3 1.3 94
2020-03-31 09:00:00 7.3 13 Sur 40 Sur 2 917.9 0.6 93
2020-03-31 08:00:00 7 12 Sudeste 32 Sudeste 2.8 917.4 -0.7 93
2020-03-31 07:00:00 7.3 14 Sudeste 33 Sudeste 0.6 917 -1.8 93
2020-03-31 06:00:00 7.1 13 Sudeste 28 Sudeste 0.6 917.3 -1.8 93
2020-03-31 05:00:00 7.3 14 Sur 39 Sur 3.8 918.1 -1.7 93
2020-03-31 04:00:00 7.5 14 Sur 33 Sudeste 0.4 918.8 -2.1 93
2020-03-31 03:00:00 7.3 9 Sudeste 22 Sudeste 0.2 919.1 -2.3 93
2020-03-31 02:00:00 7 10 Sudeste 24 Sudeste 0 919.8 -2.5 93
2020-03-31 01:00:00 7 7 Sudeste 15 Sudeste 0 920.9 -1.6 91
2020-03-31 00:00:00 6.9 8 Este 16 Este 0 921.4 -1.2 92
2020-03-30 23:00:00 6.9 5 Nordeste 10 Nordeste 0 922.3 0.2 91
2020-03-30 22:00:00 6.9 8 Oeste 24 Oeste 0.6 922.5 0.5 88
2020-03-30 21:00:00 7.5 13 Oeste 54 Oeste 1.2 922.6 0.2 87
2020-03-30 20:00:00 10.4 23 Sudoeste 50 Sudoeste 0 922.1 -0.7 71
2020-03-30 19:00:00 11.7 13 Sudoeste 30 Sudoeste 0.4 922 -1.7 70
2020-03-30 18:00:00 11.7 4 Noroeste 13 Noroeste 0 922.4 -1.9 78
2020-03-30 17:00:00 12.1 4 Noroeste 13 Oeste 0 922.8 -2.3 77
2020-03-30 16:00:00 12.2 11 Sudoeste 22 Sur 0.4 923.7 -2.2 74
2020-03-30 15:00:00 14.6 7 Sur 16 Sudeste 0 924.3 -2.2 55
2020-03-30 14:00:00 14.2 7 Sur 18 Sudoeste 0 925.1 -1.6 62
2020-03-30 13:00:00 13.4 7 Sur 17 Sudoeste 0 925.9 -0.7 65
2020-03-30 12:00:00 12.6 6 Sudoeste 12 Sudoeste 0 926.5 -0.3 65
2020-03-30 11:00:00 11.1 8 Sur 15 Sur 0 926.7 0.2 78
2020-03-30 10:00:00 9.3 4 Sur 10 Sur 0 926.6 0.2 83
2020-03-30 09:00:00 6.9 6 Sur 11 Sudeste 0 926.8 0 87
2020-03-30 08:00:00 6.4 8 Sur 14 Sur 0 926.5 -1 84
2020-03-30 07:00:00 8.1 5 Oeste 11 Noroeste 0 926.4 -1.8 78
2020-03-30 06:00:00 8.5 8 Noroeste 11 Noroeste 0 926.8 -1.8 78
2020-03-30 05:00:00 9 5 Oeste 10 Oeste 0 927.5 -1.5 76
2020-03-30 04:00:00 9.7 6 Oeste 15 Noroeste 0 928.2 -1.4 74
2020-03-30 03:00:00 9.5 9 Oeste 15 Oeste 0 928.6 -1.4 73
2020-03-30 02:00:00 9.7 9 Oeste 17 Oeste 0 929 -1.1 70
2020-03-30 01:00:00 10 8 Oeste 12 Oeste 0 929.6 -0.4 68
2020-03-30 00:00:00 10.2 8 Oeste 10 Oeste 0 930 0.4 67
2020-03-29 23:00:00 10.3 7 Sudoeste 11 Sudoeste 0 930.1 0.3 67
2020-03-29 22:00:00 11.8 7 Sudoeste 14 Sudoeste 0 930 0.2 62
2020-03-29 21:00:00 12.8 6 Sudoeste 13 Sudoeste 0 929.6 -0.3 61
2020-03-29 20:00:00 14.1 8 Sudoeste 16 Sudoeste 0 929.8 -0.4 54
2020-03-29 19:00:00 15.2 8 Sudoeste 20 Oeste 0 929.8 -0.9 48
2020-03-29 18:00:00 15.6 5 Oeste 19 Sudoeste 0 929.9 -1.5 44
2020-03-29 17:00:00 15.8 5 Sur 14 Oeste 0 930.2 -1.6 39
2020-03-29 16:00:00 16.3 6 Noroeste 14 Noroeste 0 930.7 -1.5 42
2020-03-29 15:00:00 15.5 6 Oeste 16 Sudoeste 0 931.4 -1.2 46
2020-03-29 14:00:00 14.4 10 Noroeste 17 Oeste 0 931.8 -0.8 47
2020-03-29 13:00:00 14.3 5 Sudoeste 13 Noroeste 0 932.2 -0.1 51
2020-03-29 12:00:00 12.9 6 Sudoeste 12 Sudoeste 0 932.6 0.5 64
2020-03-29 11:00:00 11.3 6 Sur 11 Sudeste 0 932.6 0.9 79
2020-03-29 10:00:00 8 5 Sudeste 10 Sudeste 0 932.3 0.7 93
2020-03-29 09:00:00 7.1 5 Sur 13 Sur 0 932.1 0.5 93
2020-03-29 08:00:00 6.7 8 Sur 15 Sur 0 931.7 0 93
2020-03-29 07:00:00 6.5 8 Sur 15 Sudeste 0 931.6 -0.5 92
2020-03-29 06:00:00 6.3 7 Sur 14 Sur 0 931.6 -0.7 89
2020-03-29 05:00:00 6.6 8 Sur 15 Sur 0 931.7 -0.7 87
2020-03-29 03:00:00 7.7 10 Sur 17 Sur 0 932.3 0.3 67
2020-03-29 01:00:00 7.9 8 Sur 16 Sudeste 0 932.4 0.7 59
2020-03-29 00:00:00 8 6 Sudeste 12 Este 0 932.3 1.1 57
2020-03-28 23:00:00 8.6 7 Nordeste 14 Este 0 932 1.4 55
2020-03-28 22:00:00 9.5 8 Nordeste 14 Nordeste 0 931.7 1.5 57
2020-03-28 21:00:00 10.9 7 Noroeste 11 Noroeste 0 931.2 1.4 53
2020-03-28 20:00:00 12.2 6 Noroeste 13 Noroeste 0 930.6 1 50
2020-03-28 19:00:00 15.2 4 Noroeste 9 Oeste 0 930.2 0.5 41
2020-03-28 18:00:00 15.5 3 Oeste 8 Oeste 0 929.8 -0.1 40
2020-03-28 17:00:00 13.7 3 Nordeste 15 Nordeste 0 929.6 -0.5 45
2020-03-28 16:00:00 14.1 6 Nordeste 13 Nordeste 0 929.7 -0.5 46
2020-03-28 15:00:00 15.2 5 Este 15 Nordeste 0 929.9 -0.4 43
2020-03-28 14:00:00 13.1 7 Norte 19 Nordeste 0 930.1 -0.1 50
2020-03-28 13:00:00 14 6 Sudoeste 16 Sudeste 0 930.2 0.6 45
2020-03-28 12:00:00 12.2 4 Sudoeste 12 Sudeste 0 930.3 1.2 59
2020-03-28 11:00:00 11.2 3 Este 15 Este 0 930.2 1.7 62
2020-03-28 10:00:00 10 8 Este 19 Este 0 929.6 1.7 66
2020-03-28 09:00:00 6.9 9 Este 24 Este 0 929.1 1.5 76
2020-03-28 08:00:00 3.4 8 Este 16 Este 0 928.5 1.3 88
2020-03-28 07:00:00 2.4 8 Este 17 Este 0 927.9 0.9 87
2020-03-28 06:00:00 1.7 8 Este 15 Este 0 927.6 0.6 88
2020-03-28 05:00:00 1.7 7 Nordeste 11 Este 0 927.2 0 88
2020-03-28 04:00:00 2.1 6 Este 12 Este 0 927 0 86
2020-03-28 03:00:00 3.1 9 Este 15 Este 0 927 0.3 84
2020-03-28 02:00:00 2.8 9 Este 17 Este 0 927.2 0.8 85
2020-03-28 01:00:00 1.9 4 Este 7 Nordeste 0 927 0.9 88
2020-03-28 00:00:00 2.2 5 Norte 18 Nordeste 0 926.7 1.2 85
2020-03-27 23:00:00 3.2 9 Nordeste 22 Nordeste 0 926.4 1.7 83
2020-03-27 22:00:00 4.1 12 Norte 24 Nordeste 0 926.1 1.9 81
2020-03-27 21:00:00 4.9 8 Nordeste 26 Nordeste 0 925.5 1.9 80
2020-03-27 20:00:00 6.7 5 Norte 20 Nordeste 0 924.7 1.5 74
2020-03-27 19:00:00 8.8 11 Nordeste 26 Norte 0 924.2 1 65
2020-03-27 18:00:00 10.3 10 Norte 29 Nordeste 0 923.6 0.5 61
2020-03-27 17:00:00 10.6 11 Norte 30 Nordeste 0 923.2 -0.1 64
2020-03-27 16:00:00 10.5 13 Nordeste 30 Nordeste 0 923.2 -0.2 64
2020-03-27 15:00:00 11.7 10 Norte 21 Noroeste 0 923.1 -0.3 66
2020-03-27 14:00:00 10.6 10 Noroeste 23 Noroeste 0 923.3 0.3 73
2020-03-27 13:00:00 12.4 4 Sur 18 Sudoeste 0 923.4 1 56
2020-03-27 12:00:00 11.8 8 Sudoeste 21 Sudoeste 0 923.4 0.7 58
2020-03-27 11:00:00 11.4 12 Sudoeste 34 Sur 0 923 0.9 68
2020-03-27 10:00:00 10 17 Sur 32 Sur 0 922.4 0.7 70
2020-03-27 09:00:00 8.3 9 Sudoeste 16 Sudoeste 0 922.7 1.1 88
2020-03-27 08:00:00 5.9 6 Sur 11 Sur 0 922.1 0.8 92
2020-03-27 07:00:00 4.7 6 Sur 10 Sur 0 921.7 0 90
2020-03-27 06:00:00 5.1 7 Sur 15 Sur 0 921.6 -0.8 89
2020-03-27 05:00:00 5.9 5 Sudoeste 11 Sur 0 921.3 -1.8 88
2020-03-27 04:00:00 6.4 7 Sudoeste 15 Noroeste 0 921.7 -1.6 88
2020-03-27 03:00:00 7.1 7 Oeste 14 Oeste 0 922.4 -1 85
2020-03-27 02:00:00 7.7 7 Noroeste 15 Oeste 0 923.1 -0.3 82
2020-03-27 01:00:00 8.6 11 Oeste 22 Oeste 0 923.3 -0.3 77
2020-03-27 00:00:00 9.2 10 Oeste 17 Oeste 0 923.4 0.1 71
2020-03-26 23:00:00 9.9 6 Noroeste 15 Noroeste 0 923.4 0.4 68
2020-03-26 22:00:00 11 6 Oeste 14 Noroeste 0 923.6 0.7 63
2020-03-26 21:00:00 11.5 6 Noroeste 22 Noroeste 0 923.3 0.8 57
2020-03-26 20:00:00 12.6 8 Noroeste 27 Noroeste 0 923 0.4 49
2020-03-26 19:00:00 14.8 16 Noroeste 41 Noroeste 0 922.9 0 36
2020-03-26 18:00:00 15.9 18 Noroeste 42 Noroeste 0 922.5 -0.7 36
2020-03-26 17:00:00 16.6 18 Noroeste 45 Oeste 0 922.6 -1.3 32
2020-03-26 16:00:00 16.5 24 Noroeste 43 Noroeste 0 922.9 -1.5 29
2020-03-26 15:00:00 16.5 19 Noroeste 42 Oeste 0 923.2 -1.6 42
2020-03-26 14:00:00 15.6 19 Noroeste 37 Noroeste 0 923.9 -1.4 45
2020-03-26 13:00:00 15 17 Oeste 31 Noroeste 0 924.4 -0.8 54
2020-03-26 12:00:00 13.6 15 Noroeste 28 Oeste 0 924.8 -0.3 64
2020-03-26 11:00:00 12.4 13 Noroeste 24 Noroeste 0 925.3 0.1 66
2020-03-26 10:00:00 11.2 9 Noroeste 18 Oeste 0 925.2 0.1 80
2020-03-26 09:00:00 9.4 9 Oeste 18 Oeste 0 925.1 0.1 91
2020-03-26 08:00:00 8 7 Oeste 21 Oeste 0 925.2 0 93
2020-03-26 07:00:00 8.5 9 Sudoeste 16 Sudoeste 0.2 925.1 -1.2 92
2020-03-26 06:00:00 8.4 9 Oeste 17 Oeste 0 925 -1.5 91
2020-03-26 05:00:00 8.8 9 Oeste 15 Oeste 0 925.2 -1.9 88
2020-03-26 04:00:00 8.6 5 Noroeste 25 Oeste 1 926.3 -1.4 85
2020-03-26 03:00:00 9.5 13 Sudoeste 28 Oeste 0 926.5 -1.4 70
2020-03-26 02:00:00 9.2 18 Oeste 42 Oeste 0 927.1 -1.1 73
2020-03-26 01:00:00 9.8 9 Noroeste 19 Oeste 0 927.7 -0.5 74
2020-03-26 00:00:00 9.7 7 Sudoeste 17 Oeste 0 927.9 -0.2 83
2020-03-25 23:00:00 9.7 7 Sur 13 Sur 0 928.2 0.3 80
2020-03-25 22:00:00 9.7 8 Sur 14 Sudoeste 0 928.2 0.5 71
2020-03-25 21:00:00 11.3 5 Noroeste 11 Noroeste 0 928.1 0.3 53
2020-03-25 20:00:00 12.4 5 Oeste 18 Noroeste 0 927.9 -0.2 48
2020-03-25 19:00:00 14.8 10 Oeste 19 Oeste 0 927.7 -0.7 39
2020-03-25 18:00:00 15.6 9 Noroeste 28 Noroeste 0 927.8 -0.9 34
2020-03-25 17:00:00 15.7 13 Noroeste 26 Oeste 0 928.1 -1.3 37
2020-03-25 16:00:00 15.5 7 Norte 24 Noroeste 0 928.4 -1.5 42
2020-03-25 15:00:00 15.2 15 Noroeste 31 Noroeste 0 928.7 -1.3 44
2020-03-25 14:00:00 14.8 8 Noroeste 21 Noroeste 0 929.4 -0.5 44
2020-03-25 13:00:00 14.2 7 Noroeste 21 Noroeste 0 929.9 0.1 49
2020-03-25 12:00:00 13.2 10 Norte 23 Norte 0 930 0.6 49
2020-03-25 11:00:00 11.8 7 Norte 16 Oeste 0 929.9 0.7 56
2020-03-25 10:00:00 10.2 7 Norte 16 Norte 0 929.8 1.1 64
2020-03-25 09:00:00 8.6 5 Norte 11 Norte 0 929.4 0.9 72
2020-03-25 08:00:00 5.9 5 Noroeste 15 Noroeste 0 929.2 1.1 84
2020-03-25 07:00:00 5.7 3 Sudoeste 9 Norte 0 928.7 0.4 84
2020-03-25 06:00:00 6.6 3 Norte 14 Este 0 928.5 0 81
2020-03-25 05:00:00 6.2 6 Este 14 Este 0 928.1 -0.4 83
2020-03-25 04:00:00 7 5 Nordeste 10 Este 0 928.3 -0.2 82
2020-03-25 03:00:00 6.9 6 Nordeste 11 Este 0 928.5 0.1 82
2020-03-25 02:00:00 6.3 8 Nordeste 17 Este 0 928.5 0.2 84
2020-03-25 01:00:00 6.6 9 Este 15 Este 0 928.5 0.6 82
2020-03-25 00:00:00 6.9 7 Este 12 Este 0 928.4 1.3 82
2020-03-24 23:00:00 7.8 6 Nordeste 23 Nordeste 0 928.3 2 79
2020-03-24 22:00:00 8.5 10 Nordeste 29 Nordeste 0 927.9 2.2 76
2020-03-24 21:00:00 9.7 15 Nordeste 28 Este 0 927.1 2.1 71
2020-03-24 20:00:00 10.6 14 Nordeste 32 Nordeste 0 926.3 1.6 70
2020-03-24 19:00:00 13.1 17 Nordeste 36 Este 0 925.7 0.9 59
2020-03-24 18:00:00 14.4 15 Nordeste 31 Nordeste 0 925 0.1 56
2020-03-24 17:00:00 14.7 12 Este 35 Nordeste 0 924.7 -0.6 53
2020-03-24 16:00:00 15.1 15 Nordeste 28 Este 0 924.8 -0.6 54
2020-03-24 15:00:00 15.1 15 Este 30 Este 0 924.9 -0.3 51
2020-03-24 14:00:00 14.1 15 Este 34 Este 0 925.3 0.2 60
2020-03-24 13:00:00 12.9 16 Este 38 Nordeste 0 925.4 0.6 62
2020-03-24 12:00:00 13.1 18 Este 41 Este 0 925.2 0.7 58
2020-03-24 11:00:00 12.1 18 Este 44 Este 0 925.1 0.5 62
2020-03-24 10:00:00 10.8 16 Nordeste 36 Este 0 924.8 0.2 70
2020-03-24 09:00:00 7.5 14 Nordeste 26 Nordeste 0 924.5 0 87
2020-03-24 08:00:00 5.9 10 Nordeste 18 Nordeste 0 924.6 -0.1 91
2020-03-24 07:00:00 5.3 11 Nordeste 21 Nordeste 0 924.6 -0.3 92
2020-03-24 06:00:00 5.3 9 Nordeste 16 Nordeste 0 924.5 -0.8 92
2020-03-24 05:00:00 5.5 8 Nordeste 16 Nordeste 0 924.7 -1 92
2020-03-24 04:00:00 5.8 8 Nordeste 14 Nordeste 0 924.9 -1.3 92
2020-03-24 03:00:00 6.4 5 Nordeste 16 Nordeste 0 925.3 -1 90
2020-03-24 02:00:00 7.1 9 Nordeste 17 Nordeste 0 925.7 -0.7 92
2020-03-24 01:00:00 7.2 5 Nordeste 22 Este 0 926.2 -0.5 93
2020-03-24 00:00:00 7.3 10 Este 25 Este 0.2 926.3 -0.1 93
2020-03-23 23:00:00 7.3 12 Este 21 Este 0 926.4 0 92
2020-03-23 22:00:00 7.6 10 Este 27 Este 0.4 926.7 1.2 91
2020-03-23 21:00:00 7.6 11 Este 25 Este 1.6 926.4 1.7 88
2020-03-23 20:00:00 8.6 17 Este 37 Este 0.4 926.4 1.9 79
2020-03-23 19:00:00 11.9 16 Este 31 Este 0 925.5 0.5 59
2020-03-23 18:00:00 13.6 10 Este 21 Sudeste 0 924.7 -0.9 47
2020-03-23 17:00:00 13.8 9 Este 22 Sudeste 0 924.5 -1.8 44
2020-03-23 16:00:00 13.7 11 Este 31 Nordeste 0 925 -1.9 47
2020-03-23 15:00:00 12.7 10 Sudeste 23 Sudeste 0 925.6 -1.4 53
2020-03-23 14:00:00 11.7 5 Sudoeste 13 Este 0.2 926.3 -1 67
2020-03-23 13:00:00 10.6 8 Este 24 Este 0 926.9 -0.3 66
2020-03-23 12:00:00 11.7 12 Este 25 Sudeste 0 927 0.4 59
2020-03-23 11:00:00 10.2 6 Este 17 Este 0 927.3 0.9 74
2020-03-23 10:00:00 9.5 7 Este 18 Este 0 927.2 1.1 79
2020-03-23 09:00:00 7.9 6 Este 17 Sudeste 0 926.6 0.7 92
2020-03-23 08:00:00 5.2 5 Este 10 Sudeste 0 926.4 0.7 93
2020-03-23 07:00:00 5 4 Sudeste 10 Sudeste 0 926.1 0.4 93
2020-03-23 06:00:00 4.8 6 Este 10 Este 0 925.9 -0.1 93
2020-03-23 05:00:00 4.9 5 Este 9 Este 0 925.7 -0.5 92
2020-03-23 04:00:00 5.5 4 Este 9 Sur 0 925.7 -0.6 92
2020-03-23 03:00:00 6 4 Sudeste 11 Sudeste 0.8 926 -0.5 91
2020-03-23 02:00:00 6.3 6 Sudeste 14 Sudeste 0.2 926.2 -0.1 91
2020-03-23 01:00:00 6.6 4 Este 9 Este 0 926.3 0.2 91
2020-03-23 00:00:00 6.7 3 Nordeste 9 Este 0 926.5 0.7 91
2020-03-22 23:00:00 7.3 3 Norte 16 Norte 0.6 926.3 1.1 91
2020-03-22 22:00:00 7.4 4 Noroeste 9 Norte 0 926.1 1.4 89
2020-03-22 21:00:00 7.1 2 Oeste 5 Noroeste 0 925.8 1.4 85
2020-03-22 20:00:00 7.6 3 Nordeste 6 Este 0 925.2 0.6 85
2020-03-22 19:00:00 8.8 0 Calma 7 Norte 0 924.7 0.5 77
2020-03-22 18:00:00 8.4 5 Norte 11 Este 2.2 924.4 0.2 83
2020-03-22 17:00:00 6.3 9 Este 24 Este 2 924.6 0 89
2020-03-22 16:00:00 9 10 Oeste 19 Oeste 0 924.2 -0.6 71
2020-03-22 15:00:00 8.7 9 Oeste 19 Noroeste 0.4 924.2 -0.8 75
2020-03-22 14:00:00 10.3 6 Nordeste 20 Sur 0 924.6 -0.5 66
2020-03-22 13:00:00 10.3 10 Sudeste 21 Sudeste 0 924.8 0 66
2020-03-22 12:00:00 10.2 4 Nordeste 12 Nordeste 0 925 0.7 65
2020-03-22 11:00:00 8.4 6 Norte 13 Nordeste 0 925.1 1 77
2020-03-22 10:00:00 7.7 3 Nordeste 10 Norte 0 924.8 1 84
2020-03-22 09:00:00 6 5 Norte 8 Norte 0 924.3 0.7 93
2020-03-22 08:00:00 4.6 4 Este 9 Este 0 924.1 0.6 94
2020-03-22 07:00:00 3.9 5 Nordeste 9 Este 0 923.8 0.1 94
2020-03-22 06:00:00 3.4 7 Este 19 Este 0 923.6 -0.5 93
2020-03-22 05:00:00 3.7 3 Sudeste 16 Sudeste 0 923.5 -0.9 92
2020-03-22 04:00:00 4.6 7 Sudeste 16 Sudeste 0 923.7 -0.9 92
2020-03-22 03:00:00 5.1 8 Sudeste 16 Sudeste 0 924.1 -0.9 93
2020-03-22 02:00:00 5.3 7 Sudeste 19 Sur 0 924.4 -0.6 93
2020-03-22 01:00:00 5.3 10 Sur 24 Sur 0 924.6 -0.3 93
2020-03-22 00:00:00 5.2 13 Sur 27 Sur 0 925 0 93
2020-03-21 23:00:00 5 11 Sur 26 Sur 0 925 0.9 92
2020-03-21 22:00:00 5.2 10 Sudeste 22 Sudeste 1 924.9 0.9 91
2020-03-21 21:00:00 5.7 9 Sur 28 Sur 1.2 925 0.9 89
2020-03-21 20:00:00 6.8 7 Sudeste 22 Sudeste 0 924.1 0.1 90
2020-03-21 19:00:00 7.3 8 Sudeste 18 Sur 0.6 924 -0.3 89
2020-03-21 18:00:00 7.8 9 Sur 28 Sudoeste 0.6 924.1 -0.7 83
2020-03-21 17:00:00 10.1 12 Sudoeste 38 Sudoeste 0 924 -1.5 68
2020-03-21 16:00:00 10.9 13 Sur 28 Sudeste 0 924.3 -2 67
2020-03-21 15:00:00 11.3 8 Sudeste 28 Sur 0 924.8 -1.9 64
2020-03-21 14:00:00 12.3 12 Sur 33 Sudoeste 0 925.5 -1.3 61
2020-03-21 13:00:00 10.5 14 Sur 35 Sudoeste 0 926.3 -0.2 67
2020-03-21 12:00:00 8.8 12 Sur 26 Sudoeste 0 926.7 0.4 77
2020-03-21 11:00:00 7.4 12 Sur 26 Sur 0 926.8 0.8 87
2020-03-21 10:00:00 7 9 Sur 26 Sur 0 926.5 0.3 92
2020-03-21 09:00:00 6.3 10 Sur 20 Sur 0 926.3 0.6 92
2020-03-21 08:00:00 5.9 4 Sudeste 14 Sudeste 0.6 926 0.7 91
2020-03-21 07:00:00 5.9 7 Sudeste 22 Sur 0.6 926.2 1.1 90
2020-03-21 06:00:00 6.2 12 Sudoeste 46 Sudoeste 1.2 925.7 0.1 88
2020-03-21 05:00:00 8 21 Sudoeste 40 Sudoeste 4.4 925.3 -0.7 90
2020-03-21 04:00:00 9.5 7 Sur 16 Sur 0.4 925.1 -1.5 89
2020-03-21 03:00:00 9.6 4 Sur 13 Sudoeste 0 925.6 -1.4 87
2020-03-21 02:00:00 9.7 6 Sur 12 Sur 0 926 -1 85
2020-03-21 01:00:00 9.6 6 Sur 16 Sudoeste 0 926.6 -0.2 85
2020-03-21 00:00:00 9.5 8 Sur 25 Sur 0 927 0.5 84
2020-03-20 23:00:00 10.3 12 Sur 26 Sudoeste 0 927 0.5 77
2020-03-20 22:00:00 10.3 8 Sudeste 13 Sudeste 0 926.8 0.1 78
2020-03-20 21:00:00 10.9 6 Sudeste 12 Sur 0 926.5 -0.1 73
2020-03-20 20:00:00 12.3 6 Sur 13 Sur 0 926.5 -0.7 69
2020-03-20 19:00:00 14 8 Sur 17 Sur 0 926.7 -0.7 61
2020-03-20 18:00:00 14.9 9 Sur 19 Sur 0 926.6 -1.3 59
2020-03-20 17:00:00 13.9 9 Sur 26 Sudoeste 0 927.2 -1.1 65
2020-03-20 16:00:00 14.8 5 Sudoeste 27 Sur 0 927.4 -1.3 56
2020-03-20 15:00:00 16.7 11 Sur 26 Sur 0 927.9 -1.1 52
2020-03-20 14:00:00 16.2 7 Sur 21 Sur 0 928.3 -0.9 56
2020-03-20 13:00:00 16.8 8 Sur 17 Sur 0 928.7 -0.6 55
2020-03-20 12:00:00 14.8 8 Sur 18 Sur 0 929 0.2 61
2020-03-20 11:00:00 12.3 8 Sudeste 19 Sudeste 0 929.2 0.8 71
2020-03-20 10:00:00 10.5 4 Este 12 Este 0 929.3 1 73
2020-03-20 09:00:00 9.5 6 Este 13 Este 0 928.8 0.5 79
2020-03-20 08:00:00 8.4 6 Este 12 Este 0 928.4 0.1 86
2020-03-20 07:00:00 9.1 5 Este 8 Sudeste 0 928.3 -0.2 89
2020-03-20 06:00:00 9.7 3 Sudeste 11 Sudeste 0 928.3 -0.9 87
2020-03-20 05:00:00 9.7 5 Sudeste 10 Sudeste 0 928.3 -0.9 87
2020-03-20 04:00:00 9.9 4 Sudeste 15 Sudoeste 0 928.5 -0.6 85
2020-03-20 03:00:00 10 8 Sur 16 Sudoeste 0 929.2 -0.1 83
2020-03-20 02:00:00 10 5 Sur 17 Sudeste 0 929.2 0 78
2020-03-20 01:00:00 10.4 9 Sudeste 17 Sudeste 0 929.1 0 74
2020-03-20 00:00:00 11 8 Sudeste 18 Este 0 929.3 0 69
2020-03-19 23:00:00 11.9 9 Este 19 Este 0 929.2 0 65
2020-03-19 22:00:00 12.2 7 Este 12 Este 0 929.1 -0.1 63
2020-03-19 21:00:00 13 5 Sudeste 10 Este 0 929.3 0.3 60
2020-03-19 20:00:00 14.1 5 Este 8 Este 0 929.2 -0.2 55
2020-03-19 19:00:00 15.6 0 Calma 14 Sudeste 0 929.2 -0.6 53
2020-03-19 18:00:00 16.8 3 Este 9 Nordeste 0 929 -1.4 49
2020-03-19 17:00:00 16.9 4 Sur 12 Sur 0 929.4 -1.6 50
2020-03-19 16:00:00 16.5 3 Sudeste 14 Sudeste 0 929.8 -2 51
2020-03-19 15:00:00 16 6 Este 18 Este 0 930.4 -1.9 45
2020-03-19 14:00:00 17.1 8 Este 18 Este 0 931 -1.8 45
2020-03-19 13:00:00 16 5 Este 19 Este 0 931.8 -1.1 51
2020-03-19 12:00:00 15.5 7 Sudeste 18 Este 0 932.3 -0.5 53
2020-03-19 11:00:00 13.6 9 Sudeste 19 Sudeste 0 932.8 0.2 61
2020-03-19 10:00:00 11.5 9 Este 21 Este 0 932.9 0.1 68
2020-03-19 09:00:00 8.9 8 Este 14 Este 0 932.8 0.2 75
2020-03-19 08:00:00 7 7 Nordeste 12 Este 0 932.6 0 81
2020-03-19 07:00:00 6.2 0 Calma 14 Este 0 932.8 0.1 80
2020-03-19 06:00:00 7.5 5 Sudeste 11 Sudeste 0 932.6 -0.4 78
2020-03-19 05:00:00 7.9 4 Sur 17 Este 0 932.6 -0.7 75
2020-03-19 04:00:00 8.5 5 Este 17 Este 0 932.7 -0.6 75
2020-03-19 03:00:00 9.5 9 Este 21 Este 0 933 -0.7 72
2020-03-19 02:00:00 10 7 Sudeste 24 Este 0 933.3 -0.7 69
2020-03-19 01:00:00 10.9 9 Sudeste 21 Este 0 933.3 -0.3 66
2020-03-19 00:00:00 11.6 10 Este 31 Este 0 933.7 0.2 64
2020-03-18 23:00:00 11.7 9 Sudeste 23 Este 0 934 0.8 65
2020-03-18 22:00:00 12.1 9 Este 20 Este 0 933.6 0.9 62
2020-03-18 21:00:00 13.4 12 Nordeste 23 Nordeste 0 933.5 0.9 57
2020-03-18 20:00:00 14.5 8 Nordeste 21 Nordeste 0 933.2 0.5 55
2020-03-18 19:00:00 17.6 10 Este 25 Nordeste 0 932.7 -0.3 42
2020-03-18 18:00:00 19.2 12 Sudeste 30 Este 0 932.6 -0.8 35
2020-03-18 17:00:00 19.9 13 Este 38 Sudeste 0 932.7 -1.2 34
2020-03-18 16:00:00 20.1 16 Este 35 Este 0 933 -1.5 32
2020-03-18 15:00:00 19.6 19 Este 36 Este 0 933.4 -1.2 34
2020-03-18 14:00:00 18.9 17 Este 37 Este 0 933.9 -1.1 39
2020-03-18 13:00:00 18.2 14 Este 38 Este 0 934.5 0 42
2020-03-18 12:00:00 16.5 18 Este 38 Este 0 934.6 0.5 47
2020-03-18 11:00:00 14.8 13 Sudeste 39 Este 0 935 0.6 55
2020-03-18 10:00:00 12.7 18 Este 45 Este 0 934.5 0.6 61
2020-03-18 09:00:00 11 19 Este 42 Este 0 934.1 -0.1 67
2020-03-18 08:00:00 10 15 Este 40 Este 0 934.4 0.4 70
2020-03-18 07:00:00 9.9 19 Este 39 Este 0 933.9 -0.4 71
2020-03-18 06:00:00 9.8 12 Este 24 Este 0 934.2 0 73
2020-03-18 05:00:00 9.4 11 Este 22 Nordeste 0 934 0 76
2020-03-18 04:00:00 10.2 8 Este 14 Este 0 934.3 0.4 74
2020-03-18 03:00:00 10.7 5 Este 19 Este 0 934.2 0.2 73
2020-03-18 02:00:00 11.1 8 Este 25 Nordeste 0 934 -0.7 75
2020-03-18 01:00:00 11.5 9 Este 40 Este 0 933.9 -1.1 75
2020-03-18 00:00:00 11.9 19 Este 36 Este 0 934 -0.7 73
2020-03-17 23:00:00 11.1 12 Nordeste 22 Sudeste 0 934.7 0.7 74
2020-03-17 22:00:00 11.1 12 Este 22 Este 0 935 0.8 70
2020-03-17 21:00:00 10.2 9 Nordeste 19 Nordeste 0 934.7 1.1 74
2020-03-17 20:00:00 10.9 7 Nordeste 15 Este 0 934 0.5 68
2020-03-17 19:00:00 12.7 8 Sudeste 31 Este 0 934.2 0.9 58
2020-03-17 18:00:00 14.4 18 Este 36 Este 0 933.6 0.2 41
2020-03-17 17:00:00 15.3 12 Este 32 Sudeste 0 933.5 -0.1 35
2020-03-17 16:00:00 14.8 15 Este 42 Sudeste 0 933.3 -0.8 35
2020-03-17 15:00:00 15.1 15 Este 37 Este 0 933.4 -0.5 33
2020-03-17 14:00:00 13.5 15 Este 36 Este 0.2 933.6 -0.1 38
2020-03-17 13:00:00 11.8 13 Este 28 Este 0 934.1 0.7 45
2020-03-17 12:00:00 10 12 Este 29 Este 0 933.9 1.6 57
2020-03-17 11:00:00 8.8 12 Este 27 Este 0 933.7 2.1 61
2020-03-17 10:00:00 8.2 9 Este 29 Este 0 933.4 2.7 66
2020-03-17 09:00:00 6.2 10 Este 28 Este 0 932.3 2.2 73
2020-03-17 08:00:00 3.8 13 Este 28 Este 0 931.6 2 83
2020-03-17 07:00:00 3.2 11 Este 26 Este 0 930.7 1 89
2020-03-17 06:00:00 3.6 9 Este 26 Este 0 930.1 0.3 90
2020-03-17 05:00:00 3.6 11 Este 21 Este 0 929.6 0.1 92
2020-03-17 04:00:00 3.3 6 Sudeste 18 Sudeste 0.2 929.7 0.3 92
2020-03-17 03:00:00 3.1 9 Sudeste 27 Sudeste 1.4 929.8 0.5 92
2020-03-17 02:00:00 3.8 10 Sudeste 18 Sudeste 0.4 929.5 0.7 93
2020-03-17 01:00:00 3.7 8 Sudeste 18 Sudeste 0.2 929.4 1.3 93
2020-03-17 00:00:00 3.7 7 Sudeste 24 Sudeste 0 929.3 1.5 93
2020-03-16 23:00:00 3.5 8 Sudeste 15 Sudeste 0 928.8 1.7 92
2020-03-16 22:00:00 3.1 5 Sudeste 17 Este 0.2 928.1 1.5 92
2020-03-16 21:00:00 2.9 7 Sudeste 18 Sur 1.4 927.8 1.2 90
2020-03-16 20:00:00 3.4 2 Noroeste 18 Sudeste 0 927.1 0.6 90
2020-03-16 19:00:00 3.9 9 Sudoeste 25 Noroeste 1.2 926.6 0.2 87
2020-03-16 18:00:00 3.4 12 Noroeste 26 Noroeste 0.6 926.6 0.2 85
2020-03-16 17:00:00 4.6 14 Sudoeste 35 Oeste 0.6 926.5 -0.5 81
2020-03-16 16:00:00 6.2 23 Oeste 36 Oeste 0 926.4 -0.8 67
2020-03-16 15:00:00 6.9 15 Sudoeste 29 Sudoeste 0 926.4 -0.9 63
2020-03-16 14:00:00 5.1 14 Oeste 26 Oeste 0 927 -0.5 66
2020-03-16 13:00:00 4.9 14 Oeste 25 Oeste 0 927.2 -0.3 69
2020-03-16 12:00:00 4.3 10 Oeste 22 Oeste 0 927.3 0.1 72
2020-03-16 11:00:00 4.2 13 Oeste 28 Oeste 0 927.5 0.6 74
2020-03-16 10:00:00 4 17 Oeste 33 Oeste 0 927.5 1.3 77
2020-03-16 09:00:00 2.9 10 Oeste 21 Noroeste 0 927.2 1.7 81
2020-03-16 08:00:00 1.2 8 Noroeste 27 Oeste 0 926.9 1.1 84
2020-03-16 07:00:00 0.9 14 Noroeste 32 Noroeste 0 926.2 0 88
2020-03-16 06:00:00 1.6 15 Noroeste 31 Oeste 0 925.5 -0.7 87
2020-03-16 05:00:00 2.9 19 Noroeste 35 Noroeste 0.6 925.8 -0.7 88
2020-03-16 04:00:00 3.4 18 Noroeste 46 Noroeste 2 926.2 -0.5 88
2020-03-16 03:00:00 6.1 19 Noroeste 45 Noroeste 0.2 926.2 -1 76
2020-03-16 02:00:00 8.5 19 Oeste 36 Noroeste 0 926.5 -0.9 83
2020-03-16 01:00:00 9 10 Noroeste 36 Noroeste 0.2 926.7 -0.8 80
2020-03-16 00:00:00 11 12 Noroeste 28 Noroeste 0 927.2 -0.2 79
2020-03-15 23:00:00 12.5 16 Oeste 29 Oeste 0 927.4 0.4 75
2020-03-15 22:00:00 13.6 14 Sudoeste 26 Sudoeste 0 927.5 1.2 70
2020-03-15 21:00:00 14 13 Sudoeste 27 Sur 0 927.4 0.4 67
2020-03-15 20:00:00 15 18 Sudoeste 40 Sudoeste 0 927 -0.4 62
2020-03-15 19:00:00 16.4 15 Sur 41 Sudoeste 0 926.3 -1.5 55
2020-03-15 18:00:00 18.6 16 Sudoeste 37 Sur 0 927 -1.3 48
2020-03-15 17:00:00 19.4 17 Sur 35 Sudoeste 0 927.4 -1.9 50
2020-03-15 16:00:00 20.6 13 Sur 30 Sur 0 927.8 -2.2 45
2020-03-15 15:00:00 20.9 10 Sur 27 Sudoeste 0 928.3 -2.4 40
2020-03-15 14:00:00 19.8 13 Sur 26 Sudoeste 0 929.3 -1.6 43
2020-03-15 13:00:00 18.8 10 Sur 24 Sur 0 930 -0.9 52
2020-03-15 12:00:00 16.2 11 Sudoeste 21 Sudoeste 0 930.7 -0.1 67
2020-03-15 11:00:00 14.9 11 Sur 21 Sur 0 930.9 0.5 70
2020-03-15 10:00:00 13.3 7 Sur 16 Sur 0 930.9 0.7 78
2020-03-15 09:00:00 11 7 Sur 18 Sur 0 930.8 0.8 88
2020-03-15 08:00:00 9.9 10 Sur 17 Sur 0 930.4 0.2 90
2020-03-15 07:00:00 10.2 9 Sur 14 Sur 0 930.2 -0.2 89
2020-03-15 06:00:00 10.5 7 Sur 12 Sur 0 930 -1.1 88
2020-03-15 05:00:00 10.5 7 Sur 21 Sur 0 930.2 -1.3 85
2020-03-15 04:00:00 10.8 7 Sur 12 Sudeste 0 930.4 -1.3 82
2020-03-15 03:00:00 11 6 Sur 12 Sur 0 931.1 -0.7 80
2020-03-15 02:00:00 11.7 7 Sur 11 Sudeste 0 931.5 -0.5 79
2020-03-15 01:00:00 12.3 7 Este 11 Este 0 931.7 -0.4 79
2020-03-15 00:00:00 13 5 Oeste 8 Oeste 0 931.8 -0.1 73
2020-03-14 23:00:00 13.1 5 Sudoeste 9 Sur 0 932 0.4 75
2020-03-14 22:00:00 13.2 6 Sur 10 Sur 0 932.1 0.6 73
2020-03-14 21:00:00 13.7 7 Sur 12 Sur 0 931.9 0.6 73
2020-03-14 20:00:00 14.9 6 Sur 12 Sudoeste 0 931.6 0.3 68
2020-03-14 19:00:00 16.9 8 Sudoeste 14 Sudoeste 0 931.5 -0.2 62
2020-03-14 18:00:00 19.1 6 Sudoeste 18 Sur 0 931.3 -0.7 54
2020-03-14 17:00:00 20.7 5 Oeste 17 Sudoeste 0 931.3 -1.4 48
2020-03-14 16:00:00 19.6 6 Sur 19 Sur 0 931.7 -1.6 54
2020-03-14 15:00:00 19.6 4 Noroeste 22 Oeste 0 932 -1.7 47
2020-03-14 14:00:00 20.4 4 Oeste 16 Norte 0 932.7 -1.2 43
2020-03-14 13:00:00 19.8 5 Este 12 Noroeste 0 933.3 -0.6 50
2020-03-14 12:00:00 17.7 5 Noroeste 13 Oeste 0 933.7 0.5 59
2020-03-14 11:00:00 16.5 4 Norte 12 Noroeste 0 933.9 1.2 69
2020-03-14 10:00:00 15 5 Noroeste 9 Noroeste 0 933.9 1.4 76
2020-03-14 09:00:00 13 0 Calma 9 Sudoeste 0 933.2 0.9 86
2020-03-14 08:00:00 10.4 5 Sudoeste 7 Oeste 0 932.7 0.6 91
2020-03-14 07:00:00 10.6 4 Oeste 6 Oeste 0 932.5 0.4 91
2020-03-14 06:00:00 9.9 3 Sur 8 Sur 0 932.3 -0.3 89
2020-03-14 05:00:00 10.7 2 Este 5 Norte 0 932.1 -0.5 85
2020-03-14 04:00:00 10.6 2 Nordeste 9 Noroeste 0 932.1 -0.5 85
2020-03-14 03:00:00 11.1 6 Noroeste 11 Norte 0 932.6 0.1 86
2020-03-14 02:00:00 11.3 6 Noroeste 11 Noroeste 0 932.6 0.1 82
2020-03-14 01:00:00 11.7 6 Noroeste 16 Noroeste 0 932.6 0.3 78
2020-03-14 00:00:00 12.4 9 Noroeste 17 Noroeste 0 932.5 0.6 76
2020-03-13 23:00:00 12.8 6 Noroeste 12 Noroeste 0 932.5 1.2 74
2020-03-13 22:00:00 13.6 6 Noroeste 12 Noroeste 0 932.3 1.4 73
2020-03-13 21:00:00 14.9 4 Noroeste 14 Oeste 0 931.9 1.5 70
2020-03-13 20:00:00 16.2 6 Sudoeste 14 Sur 0 931.3 1 62
2020-03-13 19:00:00 18.2 7 Sur 24 Sur 0 930.9 0.6 56
2020-03-13 18:00:00 21.5 11 Sudoeste 28 Sudeste 0 930.4 -0.3 47
2020-03-13 17:00:00 21.6 8 Sudeste 19 Noroeste 0 930.3 -1.2 47
2020-03-13 16:00:00 22.1 7 Oeste 23 Sudoeste 0 930.3 -1.7 33
2020-03-13 15:00:00 22.9 7 Sudoeste 19 Sudoeste 0 930.7 -1.7 30
2020-03-13 14:00:00 21.9 10 Sudoeste 21 Sudoeste 0 931.5 -1 31
2020-03-13 13:00:00 20.7 5 Sudoeste 20 Sudoeste 0 932 -0.2 41
2020-03-13 12:00:00 19.5 6 Sudoeste 14 Sudoeste 0 932.4 0.5 44
2020-03-13 11:00:00 17.9 7 Sur 14 Sudeste 0 932.5 0.9 51
2020-03-13 10:00:00 16.2 3 Sur 8 Sudeste 0 932.2 0.7 56
2020-03-13 09:00:00 12 4 Este 7 Este 0 931.9 0.6 68
2020-03-13 08:00:00 10.7 3 Este 6 Sudeste 0 931.6 0.1 75
2020-03-13 07:00:00 10.5 4 Sur 12 Este 0 931.5 -0.1 81
2020-03-13 06:00:00 10.7 8 Sur 12 Sur 0 931.3 -0.8 79
2020-03-13 05:00:00 10.6 9 Sur 13 Sur 0 931.5 -0.8 73
2020-03-13 04:00:00 11.6 4 Sur 7 Sudoeste 0 931.6 -1.1 64
2020-03-13 03:00:00 11.9 4 Sudoeste 8 Oeste 0 932.1 -0.8 60
2020-03-13 02:00:00 13.3 6 Oeste 8 Noroeste 0 932.3 -0.4 52
2020-03-13 01:00:00 14.1 6 Oeste 10 Oeste 0 932.7 0.2 49
2020-03-13 00:00:00 14.4 5 Oeste 14 Oeste 0 932.9 0.4 50
2020-03-12 23:00:00 16 5 Sudoeste 20 Sudoeste 0 932.7 0.7 48
2020-03-12 22:00:00 16.7 9 Sudoeste 20 Sudoeste 0 932.5 0.5 42
2020-03-12 21:00:00 17.6 12 Sudoeste 22 Sudoeste 0 932.5 0.5 33
2020-03-12 20:00:00 18 8 Sudoeste 14 Sudoeste 0 932 0.2 33
2020-03-12 19:00:00 21.7 10 Sudoeste 28 Sudoeste 0 932 -0.1 24
2020-03-12 18:00:00 24.2 13 Sudoeste 28 Sur 0 932 -0.8 22
2020-03-12 17:00:00 25.5 11 Sur 24 Sudoeste 0 931.8 -1.9 20
2020-03-12 16:00:00 25.8 13 Sudoeste 31 Sudoeste 0 932.1 -2.4 24
2020-03-12 15:00:00 25.5 14 Sur 35 Sudoeste 0 932.8 -2 25
2020-03-12 14:00:00 25.2 17 Sur 35 Sur 0 933.7 -1.3 24
2020-03-12 13:00:00 24.1 16 Sur 35 Sur 0 934.5 -0.3 26
2020-03-12 12:00:00 23.4 14 Sudoeste 26 Sur 0 934.8 0.3 27
2020-03-12 11:00:00 21.5 12 Sur 23 Sur 0 935 0.9 33
2020-03-12 10:00:00 19.6 9 Sur 19 Sur 0 934.8 1.3 37
2020-03-12 09:00:00 15.1 8 Sur 17 Sudeste 0 934.5 1.1 51
2020-03-12 08:00:00 13.3 7 Sur 15 Sur 0 934.1 0.3 53
2020-03-12 07:00:00 15.4 8 Sur 17 Sudeste 0 933.5 -1 42
2020-03-12 06:00:00 17.5 8 Sudeste 18 Sudeste 0 933.4 -1.7 33
2020-03-12 05:00:00 17.4 10 Sudeste 22 Sudeste 0 933.8 -1.9 35
2020-03-12 04:00:00 17.5 8 Sudeste 16 Sudeste 0 934.5 -1.6 35
2020-03-12 03:00:00 19.2 9 Sudeste 16 Sudeste 0 935.1 -1.3 31
2020-03-12 02:00:00 19.5 8 Sudeste 13 Sudeste 0 935.7 -1 29
2020-03-12 01:00:00 19.5 9 Este 22 Este 0 936.1 -0.4 26
2020-03-12 00:00:00 18.6 7 Este 9 Este 0 936.4 0.2 29
2020-03-11 23:00:00 18.3 4 Sur 10 Sudoeste 0 936.7 0.6 32
2020-03-11 22:00:00 19.5 4 Noroeste 8 Oeste 0 936.5 0.5 26
2020-03-11 21:00:00 19.1 5 Oeste 7 Oeste 0 936.2 0.2 33
2020-03-11 20:00:00 20.3 6 Oeste 12 Sudoeste 0 936.1 0 35
2020-03-11 19:00:00 23.1 8 Sudoeste 14 Sudoeste 0 936 -0.4 30
2020-03-11 18:00:00 25.7 6 Sudoeste 12 Sudeste 0 936 -0.6 25
2020-03-11 17:00:00 27.6 7 Sudoeste 18 Sudoeste 0 936.1 -1.1 17
2020-03-11 16:00:00 27.8 8 Sur 25 Sur 0 936.4 -1.5 18
2020-03-11 15:00:00 27.6 12 Sur 28 Sudoeste 0 936.6 -1.7 21
2020-03-11 14:00:00 27.7 9 Sur 24 Sur 0 937.2 -1.3 23
2020-03-11 13:00:00 26.7 7 Sudeste 20 Sudeste 0 937.9 -0.7 25
2020-03-11 12:00:00 25.8 8 Sudeste 18 Sur 0 938.3 0.1 27
2020-03-11 11:00:00 23.4 8 Sudeste 19 Sudeste 0 938.5 0.5 30
2020-03-11 10:00:00 21.1 7 Sudeste 17 Sudeste 0 938.6 0.8 36
2020-03-11 09:00:00 18.3 8 Este 17 Este 0 938.2 0.2 41
2020-03-11 08:00:00 15.3 8 Sudeste 14 Sudeste 0 938 0.1 48
2020-03-11 07:00:00 15.1 7 Sudeste 14 Sudeste 0 937.8 -0.3 48
2020-03-11 06:00:00 15.3 8 Sudeste 13 Sudeste 0 938 -0.6 49
2020-03-11 05:00:00 14.8 6 Este 8 Este 0 937.9 -1.1 51
2020-03-11 04:00:00 14.2 5 Nordeste 8 Nordeste 0 938.1 -1.2 51
2020-03-11 03:00:00 14.2 5 Norte 12 Norte 0 938.6 -1 50
2020-03-11 02:00:00 14.4 7 Norte 10 Norte 0 939 -0.9 51
2020-03-11 01:00:00 15.2 4 Norte 7 Nordeste 0 939.3 -0.3 49
2020-03-11 00:00:00 14.9 5 Nordeste 10 Norte 0 939.6 -0.1 48
2020-03-10 23:00:00 15.5 5 Noroeste 8 Noroeste 0 939.9 0.3 46
2020-03-10 22:00:00 16.2 4 Noroeste 12 Este 0 939.6 0.1 46
2020-03-10 21:00:00 16.8 6 Noroeste 11 Noroeste 0 939.7 0.5 44
2020-03-10 20:00:00 17.8 7 Noroeste 12 Noroeste 0 939.6 0.5 43
2020-03-10 19:00:00 20.8 6 Noroeste 15 Noroeste 0 939.5 0 36
2020-03-10 18:00:00 22 9 Noroeste 18 Noroeste 0 939.2 -0.5 32
2020-03-10 17:00:00 22.7 10 Noroeste 22 Oeste 0 939.1 -1.2 31
2020-03-10 16:00:00 22.8 9 Norte 22 Nordeste 0 939.5 -1.4 29
2020-03-10 15:00:00 22.9 8 Norte 21 Norte 0 939.7 -1.3 29
2020-03-10 14:00:00 21.7 6 Norte 18 Norte 0 940.3 -0.5 32
2020-03-10 13:00:00 20.3 5 Nordeste 14 Nordeste 0 940.9 0.5 31
2020-03-10 12:00:00 18.6 5 Sudoeste 13 Oeste 0 941 1.3 38
2020-03-10 11:00:00 15.8 6 Noroeste 12 Noroeste 0 940.8 1.4 42
2020-03-10 10:00:00 15.3 4 Noroeste 12 Nordeste 0 940.4 0.9 46
2020-03-10 09:00:00 11.2 5 Nordeste 16 Este 0 939.7 0.5 52
2020-03-10 08:00:00 7.8 9 Este 14 Nordeste 0 939.4 0.3 60
2020-03-10 07:00:00 7.1 8 Nordeste 14 Nordeste 0 939.5 0.4 71
2020-03-10 06:00:00 7.6 7 Nordeste 12 Norte 0 939.2 -0.3 69
2020-03-10 05:00:00 8.8 3 Nordeste 9 Norte 0 939.1 -0.5 67
2020-03-10 04:00:00 9.1 4 Norte 8 Norte 0 939.1 -0.7 67
2020-03-10 03:00:00 7.7 4 Sudoeste 8 Nordeste 0 939.5 -0.2 70
2020-03-10 02:00:00 8.5 6 Nordeste 12 Nordeste 0 939.6 -0.1 68
2020-03-10 01:00:00 9.3 6 Nordeste 12 Norte 0 939.8 0.3 64
2020-03-10 00:00:00 10.4 6 Norte 15 Noroeste 0 939.7 0.9 59
2020-03-09 23:00:00 11 9 Noroeste 16 Noroeste 0 939.7 1.1 57
2020-03-09 22:00:00 11 5 Norte 15 Noroeste 0 939.5 1.3 56
2020-03-09 21:00:00 11.8 9 Norte 17 Norte 0 938.8 0.4 53
2020-03-09 20:00:00 12.6 10 Noroeste 20 Noroeste 0 938.6 0.2 52
2020-03-09 19:00:00 15.2 8 Noroeste 22 Noroeste 0 938.2 -0.4 43
2020-03-09 18:00:00 16.5 12 Noroeste 24 Noroeste 0 938.4 -0.6 39
2020-03-09 17:00:00 17.6 9 Noroeste 23 Norte 0 938.4 -1.2 35
2020-03-09 16:00:00 17.5 9 Noroeste 18 Noroeste 0 938.6 -1.6 34
2020-03-09 15:00:00 16.8 8 Oeste 21 Noroeste 0 939 -1.1 37
2020-03-09 14:00:00 15.4 6 Noroeste 22 Oeste 0 939.6 -0.5 43
2020-03-09 13:00:00 14.5 7 Noroeste 17 Oeste 0 940.2 0.4 47
2020-03-09 12:00:00 12.6 6 Noroeste 17 Noroeste 0 940.1 1 57
2020-03-09 11:00:00 11.3 7 Norte 23 Noroeste 0 940.1 1.4 63
2020-03-09 10:00:00 9.4 13 Norte 26 Norte 0 939.8 0.9 77
2020-03-09 09:00:00 7.4 10 Norte 21 Norte 0 939.1 0.4 91
2020-03-09 08:00:00 6.3 12 Norte 22 Noroeste 0 938.7 0.1 93
2020-03-09 07:00:00 6.3 12 Norte 22 Norte 0 938.9 0.5 91
2020-03-09 06:00:00 6.3 10 Norte 28 Norte 0 938.7 -0.8 90
2020-03-09 05:00:00 6.8 10 Noroeste 18 Noroeste 0 938.6 -0.7 87
2020-03-09 04:00:00 6.8 10 Noroeste 21 Noroeste 0 938.4 -1 83
2020-03-09 03:00:00 7.4 13 Noroeste 23 Noroeste 0 939.5 0.1 79
2020-03-09 02:00:00 7.8 8 Noroeste 22 Noroeste 0 939.3 -0.4 76
2020-03-09 01:00:00 8.5 13 Noroeste 28 Noroeste 0 939.4 -0.1 74
2020-03-09 00:00:00 8.9 10 Noroeste 19 Noroeste 0 939.4 0.6 63
2020-03-08 23:00:00 10.3 11 Noroeste 20 Noroeste 0 939.7 1 54
2020-03-08 22:00:00 11.6 9 Noroeste 19 Noroeste 0 939.5 0.7 47
2020-03-08 21:00:00 12.5 8 Noroeste 14 Noroeste 0 938.8 0.3 42
2020-03-08 20:00:00 13.6 4 Noroeste 22 Noroeste 0 938.7 0.4 39
2020-03-08 19:00:00 15.4 10 Noroeste 22 Noroeste 0 938.8 0.7 37
2020-03-08 18:00:00 16 13 Noroeste 33 Norte 0 938.5 -0.1 25
2020-03-08 17:00:00 17.6 12 Noroeste 35 Noroeste 0 938.3 -0.8 28
2020-03-08 16:00:00 18.7 11 Oeste 26 Oeste 0 938.1 -1.8 28
2020-03-08 15:00:00 17.6 12 Noroeste 29 Noroeste 0 938.6 -1.5 26
2020-03-08 14:00:00 17.1 10 Noroeste 21 Noroeste 0 939.1 -1 33
2020-03-08 13:00:00 16.6 9 Oeste 20 Oeste 0 939.9 0.3 31
2020-03-08 12:00:00 15.1 5 Sudoeste 17 Sudoeste 0 940.1 0.8 39
2020-03-08 11:00:00 13.1 6 Norte 17 Norte 0 940.1 1.6 47
2020-03-08 10:00:00 10.5 5 Noroeste 13 Noroeste 0 939.6 1.3 57
2020-03-08 09:00:00 9.5 4 Norte 9 Noroeste 0 939.3 0.8 58
2020-03-08 08:00:00 6.2 5 Norte 11 Norte 0 938.5 0.2 67
2020-03-08 07:00:00 5.9 6 Norte 10 Norte 0 938.3 -0.3 68
2020-03-08 06:00:00 7.1 6 Norte 12 Nordeste 0 938.5 -0.5 63
2020-03-08 05:00:00 7.3 6 Norte 9 Norte 0 938.3 -1.1 62
2020-03-08 04:00:00 7.5 6 Norte 9 Norte 0 938.6 -1.2 62
2020-03-08 03:00:00 7.5 6 Nordeste 19 Este 0 939 -0.9 65
2020-03-08 02:00:00 7.5 6 Nordeste 8 Nordeste 0 939.4 -0.6 66
2020-03-08 01:00:00 7.8 5 Norte 7 Nordeste 0 939.8 0 64
2020-03-08 00:00:00 7.8 4 Nordeste 19 Nordeste 0 939.9 0.7 63
2020-03-07 23:00:00 8.5 5 Norte 11 Norte 0 940 1.2 57
2020-03-07 22:00:00 9.7 7 Noroeste 13 Noroeste 0 939.8 1.5 52
2020-03-07 21:00:00 10.5 6 Norte 15 Noroeste 0 939.2 1.3 50
2020-03-07 20:00:00 11.2 5 Noroeste 12 Noroeste 0 938.8 1 46
2020-03-07 19:00:00 13.9 5 Norte 17 Norte 0 938.3 0.3 39
2020-03-07 18:00:00 14.8 9 Norte 23 Nordeste 0 937.9 -0.4 34
2020-03-07 17:00:00 15 12 Norte 29 Nordeste 0 937.8 -1.2 33
2020-03-07 16:00:00 15.1 13 Nordeste 29 Norte 0 938 -1.8 32
2020-03-07 15:00:00 14.6 13 Norte 27 Norte 0 938.3 -1.5 33
2020-03-07 14:00:00 13.8 12 Norte 27 Nordeste 0 939 -0.7 32
2020-03-07 13:00:00 13 8 Nordeste 20 Nordeste 0 939.8 0.1 33
2020-03-07 12:00:00 12.1 6 Nordeste 19 Nordeste 0 939.8 0.5 39
2020-03-07 11:00:00 10.8 10 Nordeste 22 Nordeste 0 939.7 1.1 38
2020-03-07 10:00:00 9.7 7 Norte 16 Nordeste 0 939.7 1.3 45
2020-03-07 09:00:00 6.3 6 Nordeste 11 Este 0 939.3 1.3 60
2020-03-07 08:00:00 2.9 5 Nordeste 21 Norte 0 938.6 1.1 73
2020-03-07 07:00:00 3 7 Norte 13 Norte 0 938.4 0.7 73
2020-03-07 06:00:00 3.5 8 Noroeste 16 Noroeste 0 938 0.2 70
2020-03-07 05:00:00 3.7 5 Norte 14 Norte 0 937.5 -0.3 69
2020-03-07 04:00:00 4.1 8 Noroeste 14 Norte 0 937.7 0.3 68
2020-03-07 03:00:00 4.4 8 Norte 18 Noroeste 0 937.8 0.4 67
2020-03-07 02:00:00 5.3 9 Norte 17 Noroeste 0 937.8 0.9 64
2020-03-07 01:00:00 5.5 9 Norte 17 Norte 0 937.4 0.9 64
2020-03-07 00:00:00 5.8 6 Norte 19 Norte 0 937.4 1.4 63
2020-03-06 23:00:00 6.2 9 Norte 18 Noroeste 0 936.9 1.6 63
2020-03-06 22:00:00 6.9 8 Noroeste 19 Norte 0 936.5 1.8 61
2020-03-06 21:00:00 7.8 11 Noroeste 24 Noroeste 0 936 2 59
2020-03-06 20:00:00 8.7 8 Noroeste 24 Noroeste 0 935.3 1.3 54
2020-03-06 19:00:00 10.4 13 Noroeste 40 Noroeste 0 934.7 1 47
2020-03-06 18:00:00 11.5 20 Noroeste 41 Noroeste 0 934 -0.1 42
2020-03-06 17:00:00 12.1 20 Noroeste 50 Noroeste 0 934 -0.4 43
2020-03-06 16:00:00 12 25 Noroeste 50 Noroeste 0 933.7 -1.3 46
2020-03-06 15:00:00 11.6 22 Noroeste 57 Noroeste 0 934.1 -0.6 46
2020-03-06 14:00:00 11.1 25 Noroeste 57 Norte 0 934.4 0.1 49
2020-03-06 13:00:00 10.2 25 Noroeste 52 Noroeste 0 935 0.4 54
2020-03-06 12:00:00 9.4 24 Noroeste 46 Noroeste 0 934.7 1 64
2020-03-06 11:00:00 8.6 23 Oeste 43 Noroeste 0 934.3 0.9 78
2020-03-06 10:00:00 7.2 21 Noroeste 43 Noroeste 0 934.6 1.2 87
2020-03-06 09:00:00 6.1 17 Oeste 32 Oeste 0 933.7 0.5 93
2020-03-06 08:00:00 5 12 Oeste 26 Noroeste 0 933.4 0.3 93
2020-03-06 07:00:00 4.8 14 Noroeste 33 Oeste 0 933.4 0.2 92
2020-03-06 06:00:00 4.1 11 Oeste 25 Oeste 0 933.2 -0.3 93
2020-03-06 05:00:00 4.4 13 Oeste 32 Noroeste 0 933.1 -0.6 93
2020-03-06 04:00:00 4.7 14 Oeste 35 Oeste 0 933.2 -0.5 91
2020-03-06 03:00:00 4.8 13 Oeste 29 Oeste 0 933.5 0.4 88
2020-03-06 02:00:00 5.4 14 Noroeste 32 Oeste 0 933.7 0.6 86
2020-03-06 01:00:00 6.1 13 Noroeste 35 Oeste 0 933.7 1.2 82
2020-03-06 00:00:00 7 18 Oeste 36 Noroeste 0 933.1 1 79
2020-03-05 23:00:00 8 17 Oeste 36 Oeste 0 933.1 1.4 77
2020-03-05 22:00:00 8.9 22 Oeste 41 Oeste 0 932.5 1.2 73
2020-03-05 21:00:00 9.4 14 Oeste 31 Oeste 0 932.1 1.3 67
2020-03-05 20:00:00 10.5 16 Oeste 37 Oeste 0 931.7 1.3 61
2020-03-05 19:00:00 11.7 21 Oeste 42 Noroeste 0 931.3 0.9 55
2020-03-05 18:00:00 12.5 18 Noroeste 45 Oeste 0 930.8 0.6 56
2020-03-05 17:00:00 13.6 20 Noroeste 46 Oeste 0 930.4 -0.7 53
2020-03-05 16:00:00 12.6 22 Noroeste 55 Oeste 0 930.4 -1 54
2020-03-05 15:00:00 13.3 25 Oeste 52 Oeste 0 930.2 -1.2 54
2020-03-05 14:00:00 10.2 21 Oeste 41 Oeste 0.2 931.1 -0.2 89
2020-03-05 13:00:00 11.1 21 Oeste 37 Oeste 0 931.4 -0.3 84
2020-03-05 12:00:00 11.3 17 Sudoeste 40 Sudoeste 0 931.4 -0.1 80
2020-03-05 11:00:00 11.4 21 Sudoeste 39 Sudoeste 0 931.3 0.2 80
2020-03-05 10:00:00 10.8 15 Oeste 29 Oeste 0 931.7 0.6 85
2020-03-05 09:00:00 9.7 9 Oeste 23 Oeste 0 931.5 0 92
2020-03-05 08:00:00 9 15 Oeste 26 Oeste 0 931.1 -0.7 91
2020-03-05 07:00:00 9.7 10 Oeste 18 Oeste 0 931.1 -1.2 87
2020-03-05 06:00:00 9.8 8 Oeste 17 Sudoeste 0 931.5 -1.8 84
2020-03-05 05:00:00 10.1 7 Oeste 18 Oeste 0 931.8 -2.1 84
2020-03-05 04:00:00 9.6 7 Oeste 13 Oeste 0 932.3 -2 84
2020-03-05 03:00:00 8.7 6 Oeste 10 Oeste 0 933.3 -1.6 82
2020-03-05 02:00:00 8.5 7 Oeste 20 Sudoeste 0 933.9 -1.4 80
2020-03-05 01:00:00 8.6 6 Sudoeste 10 Oeste 0 934.3 -1 78
2020-03-05 00:00:00 8.7 6 Oeste 9 Oeste 0 934.9 -0.6 76
2020-03-04 23:00:00 8.9 7 Oeste 19 Sudoeste 0 935.3 -0.2 76
2020-03-04 22:00:00 9.7 7 Oeste 9 Oeste 0 935.3 -0.1 72
2020-03-04 21:00:00 11.4 6 Oeste 15 Oeste 0 935.5 0.3 65
2020-03-04 20:00:00 12.3 10 Oeste 21 Oeste 0 935.5 0.3 63
2020-03-04 19:00:00 12.9 11 Noroeste 20 Noroeste 0 935.4 -0.1 64
2020-03-04 18:00:00 13.5 9 Norte 23 Noroeste 0 935.2 -0.8 63
2020-03-04 17:00:00 14.1 11 Noroeste 30 Noroeste 0 935.2 -1.6 61
2020-03-04 16:00:00 14.4 15 Noroeste 34 Oeste 0 935.5 -1.9 59
2020-03-04 15:00:00 14.2 14 Noroeste 32 Oeste 0 936 -1.8 61
2020-03-04 14:00:00 13.4 15 Noroeste 28 Noroeste 0 936.8 -0.9 63
2020-03-04 13:00:00 13.2 13 Noroeste 27 Noroeste 0 937.4 -0.1 68
2020-03-04 12:00:00 13 10 Noroeste 26 Noroeste 0 937.8 0.7 69
2020-03-04 11:00:00 12 13 Noroeste 24 Noroeste 0 937.7 0.9 73
2020-03-04 10:00:00 11 11 Oeste 23 Oeste 0 937.5 0.7 87
2020-03-04 09:00:00 10.1 11 Oeste 22 Sudoeste 0 937.1 0.2 92
2020-03-04 08:00:00 10.1 11 Noroeste 23 Noroeste 0.2 936.8 0.2 92
2020-03-04 07:00:00 10.6 11 Oeste 19 Oeste 0 936.8 -0.1 90
2020-03-04 06:00:00 10.7 6 Oeste 14 Oeste 0 936.9 -0.6 90
2020-03-04 05:00:00 10.8 11 Oeste 22 Oeste 0 936.6 -1 89
2020-03-04 04:00:00 11.1 14 Oeste 23 Oeste 0 936.9 -0.7 90
2020-03-04 03:00:00 11.3 12 Oeste 23 Oeste 0 937.5 0 90
2020-03-04 02:00:00 11.2 6 Oeste 13 Oeste 0 937.6 0.2 90
2020-03-04 01:00:00 11.2 7 Sudoeste 31 Oeste 0 937.6 0.5 89
2020-03-04 00:00:00 11.4 10 Oeste 26 Oeste 0 937.5 0.8 87
2020-03-03 23:00:00 12 13 Oeste 23 Oeste 0 937.4 0.9 83
2020-03-03 22:00:00 12.1 13 Oeste 26 Oeste 0 937.1 0.9 83
2020-03-03 21:00:00 12.2 13 Sudoeste 22 Oeste 0 936.7 1.1 83
2020-03-03 20:00:00 12.1 8 Oeste 17 Oeste 0 936.5 1.4 83
2020-03-03 19:00:00 12.1 8 Noroeste 30 Oeste 0 936.2 1 82
2020-03-03 18:00:00 12.8 14 Oeste 32 Oeste 0 935.6 0.3 74
2020-03-03 17:00:00 13.4 14 Oeste 40 Oeste 0 935.1 -0.6 73
2020-03-03 16:00:00 13.1 23 Oeste 38 Sudoeste 0 935.2 -0.9 71
2020-03-03 15:00:00 12 20 Oeste 42 Oeste 0 935.3 -1.1 71
2020-03-03 14:00:00 12.1 24 Oeste 40 Oeste 0 935.7 -0.9 67
2020-03-03 13:00:00 11.9 23 Oeste 45 Oeste 0 936.1 -0.2 65
2020-03-03 12:00:00 10.8 19 Oeste 32 Oeste 0 936.4 0.5 67
2020-03-03 11:00:00 7.9 18 Oeste 30 Oeste 0 936.6 1.1 80
2020-03-03 10:00:00 6.8 15 Oeste 25 Oeste 0 936.3 1.8 88
2020-03-03 09:00:00 5.5 10 Oeste 18 Oeste 0 935.9 1.1 89
2020-03-03 08:00:00 4.4 9 Noroeste 17 Noroeste 0 935.5 1.1 91
2020-03-03 07:00:00 3.9 8 Noroeste 15 Noroeste 0 934.5 -0.3 90
2020-03-03 06:00:00 4.3 6 Noroeste 15 Noroeste 0 934.8 -0.2 87
2020-03-03 05:00:00 5.2 8 Noroeste 21 Noroeste 0 934.4 -1.2 85
2020-03-03 04:00:00 5.9 12 Oeste 21 Noroeste 0 934.8 -0.7 83
2020-03-03 03:00:00 5.6 12 Oeste 21 Noroeste 0 935 -0.5 84
2020-03-03 02:00:00 5.5 10 Oeste 19 Sudoeste 0 935.6 0.6 81
2020-03-03 01:00:00 6 9 Sudoeste 17 Oeste 0 935.5 1.1 80
2020-03-03 00:00:00 6.1 12 Oeste 21 Oeste 0 935.5 2.1 74